createdAt,value
2019-01-10T00:01:58.204Z,21.21
2019-01-10T00:04:26.026Z,21.21
2019-01-10T00:06:53.802Z,21.20
2019-01-10T00:09:21.653Z,21.22
2019-01-10T00:11:49.862Z,21.21
2019-01-10T00:14:18.006Z,21.20
2019-01-10T00:16:45.776Z,21.21
2019-01-10T00:19:13.647Z,21.18
2019-01-10T00:21:41.717Z,21.17
2019-01-10T00:24:09.485Z,21.16
2019-01-10T00:26:37.589Z,21.16
2019-01-10T00:29:05.380Z,21.16
2019-01-10T00:31:33.174Z,21.16
2019-01-10T00:34:01.080Z,21.15
2019-01-10T00:36:28.909Z,21.13
2019-01-10T00:38:56.710Z,21.12
2019-01-10T00:41:24.723Z,21.13
2019-01-10T00:43:52.705Z,21.12
2019-01-10T00:46:21.279Z,21.10
2019-01-10T00:48:49.420Z,21.10
2019-01-10T00:51:20.021Z,21.11
2019-01-10T00:53:48.005Z,21.09
2019-01-10T00:56:16.351Z,21.05
2019-01-10T00:58:44.928Z,21.09
2019-01-10T01:01:12.951Z,21.08
2019-01-10T01:03:40.781Z,21.07
2019-01-10T01:06:08.581Z,21.05
2019-01-10T01:08:36.447Z,21.07
2019-01-10T01:11:04.265Z,21.07
2019-01-10T01:13:32.025Z,21.08
2019-01-10T01:15:59.820Z,21.07
2019-01-10T01:18:27.600Z,21.00
2019-01-10T01:20:55.439Z,21.07
2019-01-10T01:23:23.239Z,21.03
2019-01-10T01:25:51.030Z,21.06
2019-01-10T01:28:19.213Z,21.08
2019-01-10T01:30:47.284Z,21.05
2019-01-10T01:33:15.404Z,21.05
2019-01-10T01:35:43.289Z,21.05
2019-01-10T01:38:11.290Z,21.05
2019-01-10T01:40:39.051Z,21.05
2019-01-10T01:43:07.856Z,21.05
2019-01-10T01:45:35.945Z,21.03
2019-01-10T01:48:03.824Z,20.98
2019-01-10T01:50:31.897Z,20.98
2019-01-10T01:52:59.945Z,20.96
2019-01-10T01:55:27.772Z,20.95
2019-01-10T01:57:55.569Z,20.96
2019-01-10T02:00:23.710Z,20.97
2019-01-10T02:02:51.469Z,20.76
2019-01-10T02:05:19.233Z,20.98
2019-01-10T02:07:47.179Z,20.98
2019-01-10T02:10:18.903Z,20.98
2019-01-10T02:12:46.744Z,20.96
2019-01-10T02:15:14.552Z,20.98
2019-01-10T02:17:48.827Z,20.93
2019-01-10T02:20:12.121Z,20.97
2019-01-10T02:22:40.567Z,20.98
2019-01-10T02:25:08.741Z,21.01
2019-01-10T02:27:36.534Z,21.02
2019-01-10T02:30:05.683Z,20.89
2019-01-10T02:32:34.848Z,21.03
2019-01-10T02:35:02.694Z,21.04
2019-01-10T02:37:30.901Z,21.02
2019-01-10T02:39:58.732Z,21.02
2019-01-10T02:42:26.489Z,21.04
2019-01-10T02:44:54.598Z,21.03
2019-01-10T02:47:22.813Z,21.04
2019-01-10T02:49:50.581Z,21.02
2019-01-10T02:52:18.666Z,21.03
2019-01-10T02:54:46.629Z,21.03
2019-01-10T02:57:14.511Z,21.02
2019-01-10T02:59:42.278Z,21.04
2019-01-10T03:02:10.517Z,21.02
2019-01-10T03:04:38.705Z,21.02
2019-01-10T03:07:06.774Z,21.00
2019-01-10T03:09:34.681Z,20.98
2019-01-10T03:12:02.521Z,20.97
2019-01-10T03:14:30.379Z,20.95
2019-01-10T03:16:58.174Z,20.95
2019-01-10T03:19:26.173Z,20.93
2019-01-10T03:21:54.359Z,20.93
2019-01-10T03:24:22.186Z,20.94
2019-01-10T03:26:50.711Z,20.95
2019-01-10T03:29:18.474Z,20.95
2019-01-10T03:31:46.571Z,20.95
2019-01-10T03:34:14.470Z,20.95
2019-01-10T03:36:42.265Z,21.00
2019-01-10T03:39:10.351Z,21.02
2019-01-10T03:41:38.173Z,21.02
2019-01-10T03:44:05.956Z,21.01
2019-01-10T03:46:34.060Z,21.02
2019-01-10T03:49:01.831Z,21.01
2019-01-10T03:51:30.030Z,21.01
2019-01-10T03:53:58.161Z,21.01
2019-01-10T03:56:26.441Z,21.00
2019-01-10T03:58:54.268Z,20.97
2019-01-10T04:01:22.330Z,20.96
2019-01-10T04:03:50.089Z,20.97
2019-01-10T04:06:17.932Z,20.97
2019-01-10T04:08:45.679Z,20.98
2019-01-10T04:11:13.501Z,20.97
2019-01-10T04:13:41.931Z,20.96
2019-01-10T04:16:09.733Z,20.96
2019-01-10T04:18:37.863Z,20.94
2019-01-10T04:21:16.648Z,20.94
2019-01-10T04:23:38.539Z,20.94
2019-01-10T04:26:06.317Z,20.94
2019-01-10T04:28:34.086Z,20.94
2019-01-10T04:31:01.866Z,20.92
2019-01-10T04:33:29.816Z,20.92
2019-01-10T04:35:57.608Z,20.93
2019-01-10T04:38:25.744Z,20.92
2019-01-10T04:40:53.918Z,20.91
2019-01-10T04:43:21.879Z,20.91
2019-01-10T04:45:49.664Z,20.91
2019-01-10T04:48:17.521Z,20.89
2019-01-10T04:50:45.303Z,20.88
2019-01-10T04:53:14.522Z,20.87
2019-01-10T04:55:42.582Z,20.90
2019-01-10T04:58:11.161Z,20.89
2019-01-10T05:00:39.017Z,20.92
2019-01-10T05:03:06.870Z,20.94
2019-01-10T05:05:34.638Z,20.95
2019-01-10T05:08:02.442Z,20.96
2019-01-10T05:10:30.254Z,20.95
2019-01-10T05:12:58.124Z,20.94
2019-01-10T05:15:26.270Z,20.95
2019-01-10T05:17:55.261Z,20.93
2019-01-10T05:20:23.263Z,20.91
2019-01-10T05:22:51.148Z,20.95
2019-01-10T05:25:19.840Z,20.92
2019-01-10T05:27:51.585Z,20.94
2019-01-10T05:30:20.805Z,20.88
2019-01-10T05:32:49.197Z,20.91
2019-01-10T05:35:16.984Z,20.90
2019-01-10T05:37:44.847Z,20.86
2019-01-10T05:40:13.157Z,20.86
2019-01-10T05:42:41.063Z,20.86
2019-01-10T05:45:11.021Z,20.88
2019-01-10T05:47:39.129Z,20.96
2019-01-10T05:50:08.281Z,21.06
2019-01-10T05:52:36.118Z,21.08
2019-01-10T05:55:04.323Z,21.01
2019-01-10T05:57:34.741Z,20.77
2019-01-10T06:00:25.028Z,21.05
2019-01-10T06:02:53.889Z,21.08
2019-01-10T06:05:21.757Z,21.16
2019-01-10T06:07:49.974Z,21.22
2019-01-10T06:10:19.054Z,21.32
2019-01-10T06:12:46.921Z,21.41
2019-01-10T06:15:15.061Z,21.38
2019-01-10T06:17:43.139Z,21.33
2019-01-10T06:20:11.897Z,21.31
2019-01-10T06:22:39.723Z,21.34
2019-01-10T06:25:07.938Z,21.30
2019-01-10T06:27:36.526Z,21.27
2019-01-10T06:30:04.997Z,21.29
2019-01-10T06:32:33.138Z,21.35
2019-01-10T06:35:37.546Z,21.37
2019-01-10T06:38:06.660Z,21.39
2019-01-10T06:40:34.700Z,21.12
2019-01-10T06:43:02.621Z,21.56
2019-01-10T06:45:30.614Z,19.98
2019-01-10T06:47:58.476Z,20.80
2019-01-10T06:50:28.425Z,21.25
2019-01-10T06:52:56.528Z,21.40
2019-01-10T06:55:24.773Z,21.33
2019-01-10T06:57:52.987Z,21.31
2019-01-10T07:00:24.642Z,21.33
2019-01-10T07:02:52.554Z,13.54
2019-01-10T07:05:20.403Z,17.89
2019-01-10T07:07:56.311Z,19.77
2019-01-10T07:10:19.608Z,20.46
2019-01-10T07:12:47.641Z,20.79
2019-01-10T07:15:15.411Z,20.96
2019-01-10T07:17:43.314Z,21.10
2019-01-10T07:20:11.913Z,21.16
2019-01-10T07:22:43.076Z,21.21
2019-01-10T07:25:11.388Z,21.25
2019-01-10T07:27:39.709Z,21.28
2019-01-10T07:30:08.408Z,21.30
2019-01-10T07:32:36.276Z,21.32
2019-01-10T07:35:06.429Z,21.31
2019-01-10T07:37:34.472Z,21.31
2019-01-10T07:40:02.771Z,21.34
2019-01-10T07:42:33.544Z,21.19
2019-01-10T07:45:03.546Z,21.16
2019-01-10T07:47:47.287Z,21.13
2019-01-10T07:50:15.497Z,21.11
2019-01-10T07:52:43.412Z,21.13
2019-01-10T07:55:11.210Z,21.25
2019-01-10T07:57:39.001Z,21.32
2019-01-10T08:00:07.073Z,21.36
2019-01-10T08:02:35.361Z,21.37
2019-01-10T08:05:03.324Z,21.37
2019-01-10T08:07:31.541Z,21.37
2019-01-10T08:09:59.946Z,21.36
2019-01-10T08:12:27.845Z,21.35
2019-01-10T08:14:56.083Z,21.38
2019-01-10T08:17:24.010Z,21.50
2019-01-10T08:19:51.842Z,21.54
2019-01-10T08:22:27.509Z,21.53
2019-01-10T08:24:49.459Z,21.57
2019-01-10T08:27:17.714Z,21.62
2019-01-10T08:29:46.023Z,21.69
2019-01-10T08:32:14.066Z,21.73
2019-01-10T08:34:42.182Z,21.79
2019-01-10T08:37:12.168Z,21.82
2019-01-10T08:39:40.108Z,21.83
2019-01-10T08:42:07.986Z,21.85
2019-01-10T08:44:35.859Z,21.87
2019-01-10T08:47:03.721Z,21.87
2019-01-10T08:49:31.649Z,22.01
2019-01-10T08:51:59.419Z,22.04
2019-01-10T08:54:27.208Z,22.06
2019-01-10T08:56:55.486Z,21.97
2019-01-10T08:59:23.365Z,22.13
2019-01-10T09:01:51.262Z,22.10
2019-01-10T09:04:19.048Z,22.15
2019-01-10T09:06:46.842Z,22.16
2019-01-10T09:09:14.723Z,22.10
2019-01-10T09:11:42.651Z,22.09
2019-01-10T09:14:10.564Z,22.09
2019-01-10T09:16:38.433Z,22.05
2019-01-10T09:19:06.337Z,22.15
2019-01-10T09:21:34.744Z,21.96
2019-01-10T09:24:03.022Z,22.02
2019-01-10T09:26:37.808Z,21.97
2019-01-10T09:29:06.276Z,22.06
2019-01-10T09:31:36.771Z,22.07
2019-01-10T09:34:05.966Z,21.90
2019-01-10T09:36:36.961Z,21.85
2019-01-10T09:39:07.785Z,21.76
2019-01-10T09:41:40.495Z,21.72
2019-01-10T09:44:08.376Z,21.72
2019-01-10T09:46:36.167Z,21.73
2019-01-10T09:49:04.250Z,21.81
2019-01-10T09:51:32.096Z,21.77
2019-01-10T09:54:00.397Z,21.85
2019-01-10T09:56:28.186Z,21.84
2019-01-10T09:58:56.387Z,21.81
2019-01-10T10:01:24.318Z,21.97
2019-01-10T10:03:52.710Z,21.91
2019-01-10T10:06:20.493Z,21.85
2019-01-10T10:08:49.219Z,21.75
2019-01-10T10:11:17.268Z,21.74
2019-01-10T10:13:45.073Z,21.67
2019-01-10T10:16:12.930Z,21.67
2019-01-10T10:18:40.743Z,21.66
2019-01-10T10:21:08.877Z,21.72
2019-01-10T10:23:36.764Z,21.69
2019-01-10T10:26:05.044Z,21.73
2019-01-10T10:28:33.542Z,21.86
2019-01-10T10:31:01.468Z,21.74
2019-01-10T10:33:29.347Z,21.78
2019-01-10T10:35:57.204Z,21.82
2019-01-10T10:38:25.746Z,21.81
2019-01-10T10:40:53.594Z,21.94
2019-01-10T10:43:21.561Z,21.96
2019-01-10T10:45:49.601Z,21.86
2019-01-10T10:48:17.474Z,21.87
2019-01-10T10:50:45.353Z,21.80
2019-01-10T10:53:14.093Z,21.82
2019-01-10T10:55:42.030Z,21.83
2019-01-10T10:58:09.884Z,21.81
2019-01-10T11:00:37.747Z,21.72
2019-01-10T11:03:05.596Z,21.74
2019-01-10T11:05:33.732Z,21.81
2019-01-10T11:08:01.871Z,21.81
2019-01-10T11:10:29.671Z,21.75
2019-01-10T11:12:57.768Z,21.70
2019-01-10T11:15:25.732Z,21.61
2019-01-10T11:17:53.826Z,21.54
2019-01-10T11:20:22.552Z,21.57
2019-01-10T11:22:52.999Z,21.70
2019-01-10T11:25:22.887Z,21.69
2019-01-10T11:27:50.796Z,21.74
2019-01-10T11:30:19.615Z,21.78
2019-01-10T11:32:47.456Z,21.85
2019-01-10T11:35:15.974Z,22.10
2019-01-10T11:37:43.978Z,22.13
2019-01-10T11:40:12.944Z,22.11
2019-01-10T11:42:40.856Z,22.08
2019-01-10T11:45:09.780Z,22.07
2019-01-10T11:47:37.658Z,22.07
2019-01-10T11:50:06.113Z,22.09
2019-01-10T11:52:33.981Z,22.11
2019-01-10T11:55:01.851Z,22.13
2019-01-10T11:57:29.970Z,22.17
2019-01-10T11:59:58.303Z,22.16
2019-01-10T12:02:26.174Z,22.14
2019-01-10T12:04:54.322Z,22.09
2019-01-10T12:07:22.289Z,22.03
2019-01-10T12:09:50.120Z,21.78
2019-01-10T12:12:17.967Z,21.93
2019-01-10T12:14:46.109Z,21.99
2019-01-10T12:17:13.958Z,22.01
2019-01-10T12:19:42.021Z,21.98
2019-01-10T12:22:09.820Z,22.00
2019-01-10T12:24:37.677Z,21.99
2019-01-10T12:27:05.869Z,21.99
2019-01-10T12:29:36.323Z,22.02
2019-01-10T12:32:03.882Z,22.01
2019-01-10T12:34:31.854Z,21.98
2019-01-10T12:37:00.488Z,21.98
2019-01-10T12:39:29.073Z,21.99
2019-01-10T12:41:57.359Z,22.01
2019-01-10T12:44:25.310Z,21.97
2019-01-10T12:46:53.406Z,22.02
2019-01-10T12:49:21.201Z,22.13
2019-01-10T12:51:48.978Z,21.94
2019-01-10T12:54:17.415Z,22.02
2019-01-10T12:56:45.177Z,22.05
2019-01-10T12:59:13.044Z,22.05
2019-01-10T13:01:41.074Z,22.06
2019-01-10T13:04:08.917Z,22.09
2019-01-10T13:06:38.088Z,22.15
2019-01-10T13:09:07.235Z,22.20
2019-01-10T13:11:35.328Z,22.24
2019-01-10T13:14:05.427Z,22.27
2019-01-10T13:16:33.707Z,22.26
2019-01-10T13:19:01.558Z,22.28
2019-01-10T13:21:41.827Z,22.26
2019-01-10T13:24:09.951Z,21.45
2019-01-10T13:26:37.869Z,18.82
2019-01-10T13:29:05.949Z,21.06
2019-01-10T13:31:35.142Z,21.73
2019-01-10T13:34:03.379Z,21.88
2019-01-10T13:36:31.717Z,21.95
2019-01-10T13:38:59.575Z,21.98
2019-01-10T13:41:28.029Z,22.01
2019-01-10T13:43:56.097Z,22.10
2019-01-10T13:46:24.320Z,22.14
2019-01-10T13:48:52.266Z,22.13
2019-01-10T13:51:20.610Z,22.16
2019-01-10T13:53:48.866Z,22.16
2019-01-10T13:56:19.473Z,22.18
2019-01-10T13:58:47.305Z,22.19
2019-01-10T14:01:15.167Z,22.17
2019-01-10T14:03:43.193Z,22.19
2019-01-10T14:06:11.069Z,22.19
2019-01-10T14:11:05.776Z,22.25
2019-01-10T14:13:33.574Z,22.24
2019-01-10T14:16:01.471Z,22.23
2019-01-10T14:18:29.320Z,22.22
2019-01-10T14:20:57.565Z,22.21
2019-01-10T14:23:25.500Z,22.17
2019-01-10T14:25:53.269Z,22.19
2019-01-10T14:28:21.247Z,22.17
2019-01-10T14:30:49.175Z,22.20
2019-01-10T14:33:17.066Z,22.20
2019-01-10T14:35:44.942Z,21.49
2019-01-10T14:38:12.942Z,21.80
2019-01-10T14:40:41.544Z,21.93
2019-01-10T14:43:09.326Z,22.00
2019-01-10T14:45:38.399Z,22.02
2019-01-10T14:48:06.689Z,22.04
2019-01-10T14:50:34.552Z,22.04
2019-01-10T14:53:02.380Z,21.25
2019-01-10T14:55:30.376Z,21.60
2019-01-10T14:57:58.725Z,21.81
2019-01-10T15:00:26.716Z,21.91
2019-01-10T15:02:55.084Z,22.00
2019-01-10T15:05:23.448Z,22.11
2019-01-10T15:07:51.415Z,22.17
2019-01-10T15:10:19.537Z,22.24
2019-01-10T15:12:47.617Z,22.23
2019-01-10T15:15:16.428Z,22.25
2019-01-10T15:17:44.311Z,22.22
2019-01-10T15:20:13.548Z,22.21
2019-01-10T15:22:41.588Z,22.18
2019-01-10T15:25:09.693Z,22.28
2019-01-10T15:27:37.639Z,22.34
2019-01-10T15:30:07.185Z,22.35
2019-01-10T15:32:35.033Z,19.51
2019-01-10T15:35:02.798Z,20.79
2019-01-10T15:37:30.787Z,21.33
2019-01-10T15:40:00.741Z,21.72
2019-01-10T15:42:28.558Z,21.95
2019-01-10T15:44:56.370Z,22.00
2019-01-10T15:47:24.161Z,22.00
2019-01-10T15:49:51.954Z,22.07
2019-01-10T15:52:19.921Z,22.12
2019-01-10T15:54:48.374Z,22.06
2019-01-10T15:57:16.181Z,22.03
2019-01-10T15:59:44.025Z,22.07
2019-01-10T16:02:11.890Z,21.71
2019-01-10T16:04:40.051Z,21.85
2019-01-10T16:07:07.962Z,21.92
2019-01-10T16:09:35.967Z,21.94
2019-01-10T16:12:03.736Z,21.96
2019-01-10T16:14:32.401Z,21.95
2019-01-10T16:17:00.205Z,21.87
2019-01-10T16:19:28.379Z,21.90
2019-01-10T16:21:56.795Z,21.93
2019-01-10T16:24:24.746Z,21.97
2019-01-10T16:26:52.921Z,22.02
2019-01-10T16:29:20.845Z,22.04
2019-01-10T16:31:48.600Z,22.08
2019-01-10T16:34:16.430Z,22.10
2019-01-10T16:36:44.559Z,22.11
2019-01-10T16:39:12.654Z,22.12
2019-01-10T16:41:40.548Z,22.12
2019-01-10T16:44:08.461Z,22.15
2019-01-10T16:46:36.216Z,22.16
2019-01-10T16:49:04.122Z,22.15
2019-01-10T16:51:32.686Z,22.16
2019-01-10T16:54:01.036Z,22.13
2019-01-10T16:56:29.190Z,22.12
2019-01-10T16:58:57.024Z,22.11
2019-01-10T17:01:25.051Z,22.09
2019-01-10T17:03:54.115Z,22.07
2019-01-10T17:06:22.077Z,22.05
2019-01-10T17:08:49.901Z,22.04
2019-01-10T17:11:18.324Z,22.04
2019-01-10T17:13:46.373Z,21.73
2019-01-10T17:22:42.648Z,17.72
2019-01-10T17:25:10.594Z,19.91
2019-01-10T17:27:38.898Z,21.09
2019-01-10T17:30:08.516Z,21.69
2019-01-10T17:32:36.297Z,21.87
2019-01-10T17:35:04.822Z,22.05
2019-01-10T17:37:32.721Z,22.10
2019-01-10T17:40:01.651Z,22.12
2019-01-10T17:42:30.223Z,22.15
2019-01-10T17:44:59.369Z,22.19
2019-01-10T17:47:27.304Z,22.20
2019-01-10T17:49:59.718Z,22.20
2019-01-10T17:52:27.805Z,22.20
2019-01-10T17:54:55.820Z,22.26
2019-01-10T17:57:23.846Z,22.38
2019-01-10T17:59:51.639Z,22.07
2019-01-10T18:02:19.433Z,21.75
2019-01-10T18:04:47.793Z,21.93
2019-01-10T18:07:16.390Z,21.97
2019-01-10T18:09:44.752Z,22.19
2019-01-10T18:12:13.008Z,22.23
2019-01-10T18:14:40.819Z,22.25
2019-01-10T18:17:09.125Z,21.78
2019-01-10T18:19:37.517Z,21.88
2019-01-10T18:22:05.398Z,21.57
2019-01-10T18:24:33.244Z,21.79
2019-01-10T18:27:02.072Z,21.90
2019-01-10T18:29:33.331Z,21.93
2019-01-10T18:32:02.194Z,21.93
2019-01-10T18:34:30.102Z,21.93
2019-01-10T18:36:57.946Z,21.89
2019-01-10T18:39:25.817Z,21.84
2019-01-10T18:41:53.577Z,21.86
2019-01-10T18:44:22.028Z,21.90
2019-01-10T18:46:50.285Z,21.90
2019-01-10T18:49:18.346Z,21.89
2019-01-10T18:51:49.052Z,21.93
2019-01-10T18:54:17.258Z,21.97
2019-01-10T18:56:45.849Z,21.86
2019-01-10T18:59:13.987Z,21.89
2019-01-10T19:01:42.082Z,21.95
2019-01-10T19:04:10.403Z,21.97
2019-01-10T19:06:38.208Z,21.99
2019-01-10T19:09:07.624Z,22.01
2019-01-10T19:11:37.444Z,22.03
2019-01-10T19:14:06.173Z,22.03
2019-01-10T19:16:34.833Z,22.04
2019-01-10T19:19:02.802Z,22.05
2019-01-10T19:21:30.937Z,22.06
2019-01-10T19:24:00.504Z,22.06
2019-01-10T19:26:28.912Z,22.11
2019-01-10T19:28:57.380Z,21.18
2019-01-10T19:31:25.960Z,21.75
2019-01-10T19:33:53.741Z,21.95
2019-01-10T19:36:22.118Z,21.99
2019-01-10T19:38:50.273Z,22.01
2019-01-10T19:41:18.288Z,22.01
2019-01-10T19:43:46.150Z,22.01
2019-01-10T19:46:13.997Z,21.98
2019-01-10T19:48:41.760Z,21.65
2019-01-10T19:51:09.585Z,21.77
2019-01-10T19:53:37.372Z,22.00
2019-01-10T19:56:07.473Z,22.00
2019-01-10T19:58:35.251Z,21.98
2019-01-10T20:01:03.063Z,21.96
2019-01-10T20:03:31.297Z,21.95
2019-01-10T20:05:59.056Z,21.96
2019-01-10T20:08:26.842Z,21.97
2019-01-10T20:10:54.706Z,21.98
2019-01-10T20:13:23.721Z,21.98
2019-01-10T20:15:51.940Z,22.00
2019-01-10T20:18:19.958Z,22.01
2019-01-10T20:20:48.107Z,22.01
2019-01-10T20:23:17.468Z,22.00
2019-01-10T20:25:45.260Z,22.02
2019-01-10T20:28:13.149Z,22.00
2019-01-10T20:30:40.942Z,22.00
2019-01-10T20:33:10.231Z,21.99
2019-01-10T20:35:38.243Z,21.99
2019-01-10T20:38:06.165Z,21.98
2019-01-10T20:40:34.134Z,21.96
2019-01-10T20:43:02.379Z,21.97
2019-01-10T20:45:30.326Z,21.98
2019-01-10T20:47:58.113Z,21.98
2019-01-10T20:50:27.609Z,21.97
2019-01-10T20:52:55.486Z,21.97
2019-01-10T20:55:23.545Z,22.22
2019-01-10T20:57:51.400Z,22.10
2019-01-10T21:00:20.429Z,22.17
2019-01-10T21:02:48.387Z,22.12
2019-01-10T21:05:16.149Z,22.04
2019-01-10T21:07:45.959Z,22.00
2019-01-10T21:10:13.965Z,21.98
2019-01-10T21:12:42.982Z,21.98
2019-01-10T21:15:12.317Z,22.03
2019-01-10T21:17:40.396Z,22.07
2019-01-10T21:20:08.935Z,22.00
2019-01-10T21:22:36.797Z,21.98
2019-01-10T21:25:04.928Z,21.95
2019-01-10T21:27:32.847Z,21.96
2019-01-10T21:30:01.005Z,21.95
2019-01-10T21:32:29.032Z,21.94
2019-01-10T21:34:56.845Z,21.92
2019-01-10T21:37:25.244Z,21.91
2019-01-10T21:39:53.169Z,21.90
2019-01-10T21:42:21.031Z,21.88
2019-01-10T21:44:50.014Z,21.88
2019-01-10T21:47:17.948Z,21.89
2019-01-10T21:49:45.798Z,21.88
2019-01-10T21:52:13.654Z,21.86
2019-01-10T21:54:41.764Z,21.88
2019-01-10T21:57:09.532Z,21.87
2019-01-10T21:59:37.434Z,21.87
2019-01-10T22:02:07.926Z,21.84
2019-01-10T22:04:36.113Z,21.84
2019-01-10T22:07:04.421Z,21.82
2019-01-10T22:09:32.459Z,21.87
2019-01-10T22:12:00.665Z,21.86
2019-01-10T22:14:28.477Z,21.87
2019-01-10T22:16:56.620Z,21.82
2019-01-10T22:19:24.478Z,21.75
2019-01-10T22:21:52.794Z,21.69
2019-01-10T22:24:20.817Z,21.65
2019-01-10T22:26:48.686Z,21.64
2019-01-10T22:29:16.454Z,21.63
2019-01-10T22:31:44.201Z,21.62
2019-01-10T22:34:12.596Z,21.59
2019-01-10T22:36:40.432Z,21.59
2019-01-10T22:39:08.778Z,21.60
2019-01-10T22:41:36.838Z,21.67
2019-01-10T22:44:04.608Z,21.80
2019-01-10T22:46:34.707Z,21.79
2019-01-10T22:52:25.070Z,21.99
2019-01-10T22:54:52.850Z,21.75
2019-01-10T22:57:20.764Z,21.71
2019-01-10T22:59:48.993Z,21.70
2019-01-10T23:02:17.022Z,21.52
2019-01-10T23:04:45.382Z,21.64
2019-01-10T23:07:17.881Z,21.63
2019-01-10T23:09:46.249Z,21.60
2019-01-10T23:12:14.382Z,21.58
2019-01-10T23:14:42.197Z,21.58
2019-01-10T23:17:10.116Z,21.58
2019-01-10T23:19:44.521Z,21.52
2019-01-10T23:22:13.711Z,21.55
2019-01-10T23:24:51.939Z,21.54
2019-01-10T23:27:36.672Z,21.54
2019-01-10T23:30:05.042Z,21.55
2019-01-10T23:32:33.137Z,21.54
2019-01-10T23:35:01.116Z,21.53
2019-01-10T23:37:28.965Z,21.50
2019-01-10T23:39:57.084Z,21.50
2019-01-10T23:42:25.249Z,21.48
2019-01-10T23:44:53.529Z,21.47
2019-01-10T23:47:21.438Z,21.46
2019-01-10T23:49:49.995Z,21.46
2019-01-10T23:52:18.344Z,21.43
2019-01-10T23:54:46.790Z,21.43
2019-01-10T23:57:14.686Z,21.41
2019-01-10T23:59:42.627Z,21.41
